sensor_id;sensor_type;location;lat;lon;timestamp;P1;durP1;ratioP1;P2;durP2;ratioP2
25299;SDS011;13241;51.208;4.432;2023-09-08T00:01:01;17.10;;;5.53;;
25299;SDS011;13241;51.208;4.432;2023-09-08T00:03:28;15.43;;;5.22;;
25299;SDS011;13241;51.208;4.432;2023-09-08T00:05:55;8.43;;;4.80;;
25299;SDS011;13241;51.208;4.432;2023-09-08T00:08:22;7.07;;;4.70;;
25299;SDS011;13241;51.208;4.432;2023-09-08T00:10:50;7.03;;;4.93;;
25299;SDS011;13241;51.208;4.432;2023-09-08T00:13:17;9.60;;;4.93;;
25299;SDS011;13241;51.208;4.432;2023-09-08T00:15:44;8.15;;;5.28;;
25299;SDS011;13241;51.208;4.432;2023-09-08T00:18:11;6.85;;;4.82;;
25299;SDS011;13241;51.208;4.432;2023-09-08T00:20:38;5.78;;;4.30;;
25299;SDS011;13241;51.208;4.432;2023-09-08T00:23:05;8.95;;;5.05;;
25299;SDS011;13241;51.208;4.432;2023-09-08T00:25:32;12.35;;;4.60;;
25299;SDS011;13241;51.208;4.432;2023-09-08T00:28:00;10.52;;;4.95;;
25299;SDS011;13241;51.208;4.432;2023-09-08T00:30:27;8.75;;;5.13;;
25299;SDS011;13241;51.208;4.432;2023-09-08T00:32:55;10.65;;;5.35;;
25299;SDS011;13241;51.208;4.432;2023-09-08T00:35:22;7.80;;;5.25;;
25299;SDS011;13241;51.208;4.432;2023-09-08T00:37:49;11.70;;;5.63;;
25299;SDS011;13241;51.208;4.432;2023-09-08T00:40:16;8.52;;;5.25;;
25299;SDS011;13241;51.208;4.432;2023-09-08T00:42:43;10.02;;;5.35;;
25299;SDS011;13241;51.208;4.432;2023-09-08T00:45:10;9.20;;;5.10;;
25299;SDS011;13241;51.208;4.432;2023-09-08T00:47:37;10.98;;;5.32;;
25299;SDS011;13241;51.208;4.432;2023-09-08T00:50:04;10.90;;;5.75;;
25299;SDS011;13241;51.208;4.432;2023-09-08T00:52:32;7.80;;;4.93;;
25299;SDS011;13241;51.208;4.432;2023-09-08T00:55:00;10.65;;;5.00;;
25299;SDS011;13241;51.208;4.432;2023-09-08T00:57:27;7.65;;;4.85;;
25299;SDS011;13241;51.208;4.432;2023-09-08T00:59:54;8.55;;;5.40;;
25299;SDS011;13241;51.208;4.432;2023-09-08T01:02:21;10.27;;;5.40;;
25299;SDS011;13241;51.208;4.432;2023-09-08T01:04:49;9.98;;;5.15;;
25299;SDS011;13241;51.208;4.432;2023-09-08T01:07:16;8.55;;;5.22;;
25299;SDS011;13241;51.208;4.432;2023-09-08T01:09:46;9.93;;;5.07;;
25299;SDS011;13241;51.208;4.432;2023-09-08T01:12:14;8.73;;;5.43;;
25299;SDS011;13241;51.208;4.432;2023-09-08T01:14:42;8.55;;;5.10;;
25299;SDS011;13241;51.208;4.432;2023-09-08T01:17:08;8.95;;;5.30;;
25299;SDS011;13241;51.208;4.432;2023-09-08T01:19:36;7.82;;;5.10;;
25299;SDS011;13241;51.208;4.432;2023-09-08T01:27:35;10.82;;;5.35;;
25299;SDS011;13241;51.208;4.432;2023-09-08T01:30:05;9.43;;;5.60;;
25299;SDS011;13241;51.208;4.432;2023-09-08T01:32:32;9.75;;;5.10;;
25299;SDS011;13241;51.208;4.432;2023-09-08T01:35:01;8.90;;;5.53;;
25299;SDS011;13241;51.208;4.432;2023-09-08T01:37:28;11.20;;;6.10;;
25299;SDS011;13241;51.208;4.432;2023-09-08T01:39:55;7.53;;;4.57;;
25299;SDS011;13241;51.208;4.432;2023-09-08T01:42:22;8.63;;;5.32;;
25299;SDS011;13241;51.208;4.432;2023-09-08T01:44:49;11.30;;;5.35;;
25299;SDS011;13241;51.208;4.432;2023-09-08T01:47:16;9.07;;;4.88;;
25299;SDS011;13241;51.208;4.432;2023-09-08T01:49:43;9.20;;;5.28;;
25299;SDS011;13241;51.208;4.432;2023-09-08T01:52:10;10.55;;;4.63;;
25299;SDS011;13241;51.208;4.432;2023-09-08T01:54:37;6.70;;;4.65;;
25299;SDS011;13241;51.208;4.432;2023-09-08T01:57:04;8.60;;;4.75;;
25299;SDS011;13241;51.208;4.432;2023-09-08T01:59:31;11.93;;;5.38;;
25299;SDS011;13241;51.208;4.432;2023-09-08T02:01:58;8.35;;;5.25;;
25299;SDS011;13241;51.208;4.432;2023-09-08T02:04:26;11.68;;;5.50;;
25299;SDS011;13241;51.208;4.432;2023-09-08T02:06:53;7.70;;;4.22;;
25299;SDS011;13241;51.208;4.432;2023-09-08T02:09:19;13.80;;;5.63;;
25299;SDS011;13241;51.208;4.432;2023-09-08T02:11:47;13.35;;;5.18;;
25299;SDS011;13241;51.208;4.432;2023-09-08T02:14:14;11.43;;;5.28;;
25299;SDS011;13241;51.208;4.432;2023-09-08T02:16:40;7.75;;;5.22;;
25299;SDS011;13241;51.208;4.432;2023-09-08T02:19:07;8.52;;;5.63;;
25299;SDS011;13241;51.208;4.432;2023-09-08T02:21:35;8.75;;;5.50;;
25299;SDS011;13241;51.208;4.432;2023-09-08T02:24:02;9.00;;;5.43;;
25299;SDS011;13241;51.208;4.432;2023-09-08T02:26:30;11.13;;;5.50;;
25299;SDS011;13241;51.208;4.432;2023-09-08T02:29:00;7.88;;;4.88;;
25299;SDS011;13241;51.208;4.432;2023-09-08T02:31:28;8.82;;;5.10;;
25299;SDS011;13241;51.208;4.432;2023-09-08T02:33:56;10.18;;;5.30;;
25299;SDS011;13241;51.208;4.432;2023-09-08T02:36:23;8.55;;;4.80;;
25299;SDS011;13241;51.208;4.432;2023-09-08T02:38:55;9.05;;;5.13;;
25299;SDS011;13241;51.208;4.432;2023-09-08T02:41:23;10.80;;;5.22;;
25299;SDS011;13241;51.208;4.432;2023-09-08T02:43:50;10.77;;;5.97;;
25299;SDS011;13241;51.208;4.432;2023-09-08T02:46:18;8.80;;;5.18;;
25299;SDS011;13241;51.208;4.432;2023-09-08T02:48:46;8.85;;;5.55;;
25299;SDS011;13241;51.208;4.432;2023-09-08T02:51:13;12.07;;;5.30;;
25299;SDS011;13241;51.208;4.432;2023-09-08T02:53:40;10.18;;;6.20;;
25299;SDS011;13241;51.208;4.432;2023-09-08T02:56:07;9.63;;;5.53;;
25299;SDS011;13241;51.208;4.432;2023-09-08T02:58:35;10.00;;;5.63;;
25299;SDS011;13241;51.208;4.432;2023-09-08T03:01:16;8.10;;;5.05;;
25299;SDS011;13241;51.208;4.432;2023-09-08T03:03:47;8.77;;;5.30;;
25299;SDS011;13241;51.208;4.432;2023-09-08T03:06:18;10.23;;;6.15;;
25299;SDS011;13241;51.208;4.432;2023-09-08T03:08:47;11.80;;;5.85;;
25299;SDS011;13241;51.208;4.432;2023-09-08T03:11:14;10.45;;;5.32;;
25299;SDS011;13241;51.208;4.432;2023-09-08T03:13:41;9.38;;;5.70;;
25299;SDS011;13241;51.208;4.432;2023-09-08T03:16:09;11.38;;;6.00;;
25299;SDS011;13241;51.208;4.432;2023-09-08T03:18:37;12.38;;;5.05;;
25299;SDS011;13241;51.208;4.432;2023-09-08T03:21:05;8.27;;;5.20;;
25299;SDS011;13241;51.208;4.432;2023-09-08T03:23:40;7.95;;;5.20;;
25299;SDS011;13241;51.208;4.432;2023-09-08T03:26:09;8.00;;;5.07;;
25299;SDS011;13241;51.208;4.432;2023-09-08T03:28:37;9.25;;;5.28;;
25299;SDS011;13241;51.208;4.432;2023-09-08T03:31:05;8.38;;;5.25;;
25299;SDS011;13241;51.208;4.432;2023-09-08T03:33:34;12.05;;;5.80;;
25299;SDS011;13241;51.208;4.432;2023-09-08T03:36:03;11.45;;;6.00;;
25299;SDS011;13241;51.208;4.432;2023-09-08T03:38:31;9.90;;;5.35;;
25299;SDS011;13241;51.208;4.432;2023-09-08T03:40:58;13.35;;;5.43;;
25299;SDS011;13241;51.208;4.432;2023-09-08T03:43:25;8.82;;;4.93;;
25299;SDS011;13241;51.208;4.432;2023-09-08T03:45:52;11.43;;;5.38;;
25299;SDS011;13241;51.208;4.432;2023-09-08T03:48:21;8.32;;;5.43;;
25299;SDS011;13241;51.208;4.432;2023-09-08T03:50:47;7.80;;;4.97;;
25299;SDS011;13241;51.208;4.432;2023-09-08T03:53:15;9.40;;;6.10;;
25299;SDS011;13241;51.208;4.432;2023-09-08T03:55:42;10.43;;;5.65;;
25299;SDS011;13241;51.208;4.432;2023-09-08T03:58:09;11.57;;;4.43;;
25299;SDS011;13241;51.208;4.432;2023-09-08T04:00:36;9.68;;;5.75;;
25299;SDS011;13241;51.208;4.432;2023-09-08T04:03:04;9.52;;;5.95;;
25299;SDS011;13241;51.208;4.432;2023-09-08T04:05:31;10.70;;;5.00;;
25299;SDS011;13241;51.208;4.432;2023-09-08T04:07:59;11.10;;;5.60;;
25299;SDS011;13241;51.208;4.432;2023-09-08T04:10:26;9.88;;;5.03;;
25299;SDS011;13241;51.208;4.432;2023-09-08T04:12:53;9.98;;;5.20;;
25299;SDS011;13241;51.208;4.432;2023-09-08T04:15:20;14.02;;;5.30;;
25299;SDS011;13241;51.208;4.432;2023-09-08T04:17:49;14.23;;;6.00;;
25299;SDS011;13241;51.208;4.432;2023-09-08T04:20:17;8.98;;;5.32;;
25299;SDS011;13241;51.208;4.432;2023-09-08T04:22:44;9.30;;;5.53;;
25299;SDS011;13241;51.208;4.432;2023-09-08T04:25:11;10.35;;;5.80;;
25299;SDS011;13241;51.208;4.432;2023-09-08T04:27:39;13.13;;;5.68;;
25299;SDS011;13241;51.208;4.432;2023-09-08T04:30:07;8.57;;;5.47;;
25299;SDS011;13241;51.208;4.432;2023-09-08T04:32:34;9.02;;;5.63;;
25299;SDS011;13241;51.208;4.432;2023-09-08T04:35:01;9.40;;;5.38;;
25299;SDS011;13241;51.208;4.432;2023-09-08T04:37:29;7.90;;;4.60;;
25299;SDS011;13241;51.208;4.432;2023-09-08T04:39:56;8.80;;;5.18;;
25299;SDS011;13241;51.208;4.432;2023-09-08T04:42:24;8.95;;;5.90;;
25299;SDS011;13241;51.208;4.432;2023-09-08T04:44:52;9.13;;;5.78;;
25299;SDS011;13241;51.208;4.432;2023-09-08T04:47:19;17.13;;;5.97;;
25299;SDS011;13241;51.208;4.432;2023-09-08T04:49:48;10.43;;;5.50;;
25299;SDS011;13241;51.208;4.432;2023-09-08T04:52:15;14.45;;;5.72;;
25299;SDS011;13241;51.208;4.432;2023-09-08T04:54:43;10.02;;;5.53;;
25299;SDS011;13241;51.208;4.432;2023-09-08T04:57:10;10.15;;;5.82;;
25299;SDS011;13241;51.208;4.432;2023-09-08T04:59:50;20.25;;;6.00;;
25299;SDS011;13241;51.208;4.432;2023-09-08T05:02:17;9.65;;;5.85;;
25299;SDS011;13241;51.208;4.432;2023-09-08T05:04:45;8.48;;;5.90;;
25299;SDS011;13241;51.208;4.432;2023-09-08T05:07:13;9.45;;;5.78;;
25299;SDS011;13241;51.208;4.432;2023-09-08T05:09:40;8.82;;;5.72;;
25299;SDS011;13241;51.208;4.432;2023-09-08T05:12:08;7.55;;;5.00;;
25299;SDS011;13241;51.208;4.432;2023-09-08T05:14:36;9.80;;;5.55;;
25299;SDS011;13241;51.208;4.432;2023-09-08T05:17:03;8.10;;;4.78;;
25299;SDS011;13241;51.208;4.432;2023-09-08T05:19:31;8.15;;;5.20;;
25299;SDS011;13241;51.208;4.432;2023-09-08T05:21:58;12.57;;;5.68;;
25299;SDS011;13241;51.208;4.432;2023-09-08T05:24:25;8.88;;;5.07;;
25299;SDS011;13241;51.208;4.432;2023-09-08T05:26:53;13.52;;;5.63;;
25299;SDS011;13241;51.208;4.432;2023-09-08T05:29:21;8.20;;;4.97;;
25299;SDS011;13241;51.208;4.432;2023-09-08T05:31:49;9.60;;;5.32;;
25299;SDS011;13241;51.208;4.432;2023-09-08T05:34:17;8.07;;;4.80;;
25299;SDS011;13241;51.208;4.432;2023-09-08T05:36:44;14.07;;;6.03;;
25299;SDS011;13241;51.208;4.432;2023-09-08T05:39:13;8.65;;;5.30;;
25299;SDS011;13241;51.208;4.432;2023-09-08T05:41:46;9.90;;;6.28;;
25299;SDS011;13241;51.208;4.432;2023-09-08T05:44:13;9.65;;;5.85;;
25299;SDS011;13241;51.208;4.432;2023-09-08T05:46:40;7.95;;;5.18;;
25299;SDS011;13241;51.208;4.432;2023-09-08T05:49:07;10.82;;;5.10;;
25299;SDS011;13241;51.208;4.432;2023-09-08T05:51:36;10.38;;;5.22;;
25299;SDS011;13241;51.208;4.432;2023-09-08T05:54:04;10.65;;;5.93;;
25299;SDS011;13241;51.208;4.432;2023-09-08T05:56:31;17.73;;;5.97;;
25299;SDS011;13241;51.208;4.432;2023-09-08T05:59:00;10.48;;;6.00;;
25299;SDS011;13241;51.208;4.432;2023-09-08T06:01:30;9.48;;;5.65;;
25299;SDS011;13241;51.208;4.432;2023-09-08T06:03:58;8.32;;;5.60;;
25299;SDS011;13241;51.208;4.432;2023-09-08T06:06:28;12.48;;;5.53;;
25299;SDS011;13241;51.208;4.432;2023-09-08T06:08:57;11.98;;;5.50;;
25299;SDS011;13241;51.208;4.432;2023-09-08T06:11:25;13.13;;;6.40;;
25299;SDS011;13241;51.208;4.432;2023-09-08T06:13:53;11.73;;;5.85;;
25299;SDS011;13241;51.208;4.432;2023-09-08T06:16:27;9.48;;;6.57;;
25299;SDS011;13241;51.208;4.432;2023-09-08T06:18:54;9.25;;;5.90;;
25299;SDS011;13241;51.208;4.432;2023-09-08T06:21:21;10.40;;;6.68;;
25299;SDS011;13241;51.208;4.432;2023-09-08T06:23:49;9.38;;;6.18;;
25299;SDS011;13241;51.208;4.432;2023-09-08T06:26:17;12.15;;;6.25;;
25299;SDS011;13241;51.208;4.432;2023-09-08T06:28:45;16.35;;;6.22;;
25299;SDS011;13241;51.208;4.432;2023-09-08T06:31:12;13.20;;;5.80;;
25299;SDS011;13241;51.208;4.432;2023-09-08T06:33:42;11.95;;;6.28;;
25299;SDS011;13241;51.208;4.432;2023-09-08T06:36:09;15.20;;;5.75;;
25299;SDS011;13241;51.208;4.432;2023-09-08T06:38:40;9.52;;;5.85;;
25299;SDS011;13241;51.208;4.432;2023-09-08T06:41:13;14.80;;;5.82;;
25299;SDS011;13241;51.208;4.432;2023-09-08T06:43:41;15.10;;;6.53;;
25299;SDS011;13241;51.208;4.432;2023-09-08T06:46:15;10.55;;;6.00;;
25299;SDS011;13241;51.208;4.432;2023-09-08T06:48:43;8.55;;;5.35;;
25299;SDS011;13241;51.208;4.432;2023-09-08T06:51:11;10.88;;;6.70;;
25299;SDS011;13241;51.208;4.432;2023-09-08T06:53:38;8.27;;;5.40;;
25299;SDS011;13241;51.208;4.432;2023-09-08T06:56:06;8.73;;;5.53;;
25299;SDS011;13241;51.208;4.432;2023-09-08T06:58:33;14.98;;;6.43;;
25299;SDS011;13241;51.208;4.432;2023-09-08T07:01:02;11.23;;;6.50;;
25299;SDS011;13241;51.208;4.432;2023-09-08T07:03:29;10.95;;;6.15;;
25299;SDS011;13241;51.208;4.432;2023-09-08T07:06:05;13.68;;;6.70;;
25299;SDS011;13241;51.208;4.432;2023-09-08T07:08:33;12.38;;;6.03;;
25299;SDS011;13241;51.208;4.432;2023-09-08T07:11:00;11.00;;;6.25;;
25299;SDS011;13241;51.208;4.432;2023-09-08T07:13:27;14.13;;;6.88;;
25299;SDS011;13241;51.208;4.432;2023-09-08T07:15:55;10.80;;;5.80;;
25299;SDS011;13241;51.208;4.432;2023-09-08T07:18:23;10.20;;;6.03;;
25299;SDS011;13241;51.208;4.432;2023-09-08T07:20:50;11.48;;;5.43;;
25299;SDS011;13241;51.208;4.432;2023-09-08T07:23:19;12.15;;;6.43;;
25299;SDS011;13241;51.208;4.432;2023-09-08T07:25:47;10.00;;;5.53;;
25299;SDS011;13241;51.208;4.432;2023-09-08T07:28:16;18.83;;;6.40;;
25299;SDS011;13241;51.208;4.432;2023-09-08T07:30:43;10.77;;;5.57;;
25299;SDS011;13241;51.208;4.432;2023-09-08T07:33:12;10.27;;;6.47;;
25299;SDS011;13241;51.208;4.432;2023-09-08T07:35:40;11.70;;;6.10;;
25299;SDS011;13241;51.208;4.432;2023-09-08T07:38:07;9.27;;;5.97;;
25299;SDS011;13241;51.208;4.432;2023-09-08T07:40:35;20.25;;;6.53;;
25299;SDS011;13241;51.208;4.432;2023-09-08T07:43:02;12.18;;;6.13;;
25299;SDS011;13241;51.208;4.432;2023-09-08T07:45:29;10.27;;;5.90;;
25299;SDS011;13241;51.208;4.432;2023-09-08T07:47:56;8.30;;;5.70;;
25299;SDS011;13241;51.208;4.432;2023-09-08T07:50:27;11.57;;;5.63;;
25299;SDS011;13241;51.208;4.432;2023-09-08T07:52:55;17.75;;;5.38;;
25299;SDS011;13241;51.208;4.432;2023-09-08T07:55:23;11.57;;;5.18;;
25299;SDS011;13241;51.208;4.432;2023-09-08T07:57:53;11.73;;;5.50;;
25299;SDS011;13241;51.208;4.432;2023-09-08T08:00:20;9.30;;;5.15;;
25299;SDS011;13241;51.208;4.432;2023-09-08T08:02:48;8.18;;;5.22;;
25299;SDS011;13241;51.208;4.432;2023-09-08T08:05:17;12.60;;;5.18;;
25299;SDS011;13241;51.208;4.432;2023-09-08T08:07:44;10.60;;;4.95;;
25299;SDS011;13241;51.208;4.432;2023-09-08T08:10:11;13.23;;;4.47;;
25299;SDS011;13241;51.208;4.432;2023-09-08T08:12:39;9.43;;;5.00;;
25299;SDS011;13241;51.208;4.432;2023-09-08T08:15:08;8.98;;;5.20;;
25299;SDS011;13241;51.208;4.432;2023-09-08T08:17:39;18.13;;;5.13;;
25299;SDS011;13241;51.208;4.432;2023-09-08T08:20:07;9.27;;;4.75;;
25299;SDS011;13241;51.208;4.432;2023-09-08T08:22:37;10.52;;;5.43;;
25299;SDS011;13241;51.208;4.432;2023-09-08T08:25:04;11.10;;;4.93;;
25299;SDS011;13241;51.208;4.432;2023-09-08T08:27:31;9.38;;;4.72;;
25299;SDS011;13241;51.208;4.432;2023-09-08T08:30:00;15.57;;;4.88;;
25299;SDS011;13241;51.208;4.432;2023-09-08T08:32:34;11.63;;;4.72;;
25299;SDS011;13241;51.208;4.432;2023-09-08T08:35:04;8.48;;;4.82;;
25299;SDS011;13241;51.208;4.432;2023-09-08T08:37:31;7.10;;;4.47;;
25299;SDS011;13241;51.208;4.432;2023-09-08T08:39:57;7.93;;;4.55;;
25299;SDS011;13241;51.208;4.432;2023-09-08T08:42:30;11.90;;;5.10;;
25299;SDS011;13241;51.208;4.432;2023-09-08T08:44:59;9.55;;;4.60;;
25299;SDS011;13241;51.208;4.432;2023-09-08T08:47:27;10.10;;;4.63;;
25299;SDS011;13241;51.208;4.432;2023-09-08T08:49:59;8.35;;;4.95;;
25299;SDS011;13241;51.208;4.432;2023-09-08T08:52:27;6.93;;;4.47;;
25299;SDS011;13241;51.208;4.432;2023-09-08T08:54:56;7.55;;;5.05;;
25299;SDS011;13241;51.208;4.432;2023-09-08T08:57:24;10.82;;;4.65;;
25299;SDS011;13241;51.208;4.432;2023-09-08T08:59:54;9.65;;;4.75;;
25299;SDS011;13241;51.208;4.432;2023-09-08T09:02:21;8.15;;;4.07;;
25299;SDS011;13241;51.208;4.432;2023-09-08T09:04:51;11.32;;;4.63;;
25299;SDS011;13241;51.208;4.432;2023-09-08T09:07:19;7.38;;;3.90;;
25299;SDS011;13241;51.208;4.432;2023-09-08T09:09:47;8.93;;;4.53;;
25299;SDS011;13241;51.208;4.432;2023-09-08T09:12:14;5.07;;;4.13;;
25299;SDS011;13241;51.208;4.432;2023-09-08T09:14:47;9.98;;;4.20;;
25299;SDS011;13241;51.208;4.432;2023-09-08T09:17:14;13.90;;;5.72;;
25299;SDS011;13241;51.208;4.432;2023-09-08T09:19:41;10.05;;;4.80;;
25299;SDS011;13241;51.208;4.432;2023-09-08T09:22:08;11.23;;;4.10;;
25299;SDS011;13241;51.208;4.432;2023-09-08T09:24:36;7.38;;;4.15;;
25299;SDS011;13241;51.208;4.432;2023-09-08T09:27:10;8.93;;;4.13;;
25299;SDS011;13241;51.208;4.432;2023-09-08T09:29:56;10.05;;;4.68;;
25299;SDS011;13241;51.208;4.432;2023-09-08T09:32:25;6.28;;;4.32;;
25299;SDS011;13241;51.208;4.432;2023-09-08T09:34:53;10.60;;;4.50;;
25299;SDS011;13241;51.208;4.432;2023-09-08T09:37:21;15.77;;;4.85;;
25299;SDS011;13241;51.208;4.432;2023-09-08T09:39:52;10.43;;;3.92;;
25299;SDS011;13241;51.208;4.432;2023-09-08T09:42:20;13.85;;;4.88;;
25299;SDS011;13241;51.208;4.432;2023-09-08T09:44:48;7.38;;;4.60;;
25299;SDS011;13241;51.208;4.432;2023-09-08T09:47:15;13.52;;;3.90;;
25299;SDS011;13241;51.208;4.432;2023-09-08T09:49:43;5.03;;;3.55;;
25299;SDS011;13241;51.208;4.432;2023-09-08T09:52:12;5.45;;;4.05;;
25299;SDS011;13241;51.208;4.432;2023-09-08T09:54:43;5.82;;;3.92;;
25299;SDS011;13241;51.208;4.432;2023-09-08T09:57:11;5.97;;;4.07;;
25299;SDS011;13241;51.208;4.432;2023-09-08T09:59:40;7.47;;;4.07;;
25299;SDS011;13241;51.208;4.432;2023-09-08T10:02:14;5.97;;;4.05;;
25299;SDS011;13241;51.208;4.432;2023-09-08T10:04:41;7.35;;;4.15;;
25299;SDS011;13241;51.208;4.432;2023-09-08T10:07:09;5.57;;;3.88;;
25299;SDS011;13241;51.208;4.432;2023-09-08T10:09:36;7.72;;;4.10;;
25299;SDS011;13241;51.208;4.432;2023-09-08T10:12:04;5.57;;;4.15;;
25299;SDS011;13241;51.208;4.432;2023-09-08T10:14:33;5.05;;;3.65;;
25299;SDS011;13241;51.208;4.432;2023-09-08T10:17:02;7.47;;;5.00;;
25299;SDS011;13241;51.208;4.432;2023-09-08T10:19:35;6.68;;;4.10;;
25299;SDS011;13241;51.208;4.432;2023-09-08T10:22:11;7.05;;;3.83;;
25299;SDS011;13241;51.208;4.432;2023-09-08T10:24:39;8.75;;;4.25;;
25299;SDS011;13241;51.208;4.432;2023-09-08T10:27:10;7.88;;;4.05;;
25299;SDS011;13241;51.208;4.432;2023-09-08T10:29:38;8.25;;;4.28;;
25299;SDS011;13241;51.208;4.432;2023-09-08T10:32:08;9.95;;;4.28;;
25299;SDS011;13241;51.208;4.432;2023-09-08T10:34:36;7.53;;;5.22;;
25299;SDS011;13241;51.208;4.432;2023-09-08T10:39:46;9.05;;;3.90;;
25299;SDS011;13241;51.208;4.432;2023-09-08T10:42:22;8.68;;;3.85;;
25299;SDS011;13241;51.208;4.432;2023-09-08T10:44:58;6.13;;;3.70;;
25299;SDS011;13241;51.208;4.432;2023-09-08T10:47:31;6.93;;;3.83;;
25299;SDS011;13241;51.208;4.432;2023-09-08T10:50:04;4.65;;;3.40;;
25299;SDS011;13241;51.208;4.432;2023-09-08T10:52:34;4.68;;;2.72;;
25299;SDS011;13241;51.208;4.432;2023-09-08T10:55:02;5.32;;;3.40;;
25299;SDS011;13241;51.208;4.432;2023-09-08T10:57:30;3.80;;;2.58;;
25299;SDS011;13241;51.208;4.432;2023-09-08T11:00:01;11.32;;;3.50;;
25299;SDS011;13241;51.208;4.432;2023-09-08T11:02:40;6.35;;;3.97;;
25299;SDS011;13241;51.208;4.432;2023-09-08T11:05:09;6.95;;;4.22;;
25299;SDS011;13241;51.208;4.432;2023-09-08T11:07:38;6.65;;;4.32;;
25299;SDS011;13241;51.208;4.432;2023-09-08T11:10:05;9.05;;;4.07;;
25299;SDS011;13241;51.208;4.432;2023-09-08T11:12:33;5.80;;;3.47;;
25299;SDS011;13241;51.208;4.432;2023-09-08T11:15:01;5.00;;;2.88;;
25299;SDS011;13241;51.208;4.432;2023-09-08T11:17:34;6.95;;;3.15;;
25299;SDS011;13241;51.208;4.432;2023-09-08T11:20:06;4.10;;;2.45;;
25299;SDS011;13241;51.208;4.432;2023-09-08T11:22:41;4.15;;;2.47;;
25299;SDS011;13241;51.208;4.432;2023-09-08T11:25:11;2.90;;;2.22;;
25299;SDS011;13241;51.208;4.432;2023-09-08T11:27:38;5.28;;;2.47;;
25299;SDS011;13241;51.208;4.432;2023-09-08T11:30:07;3.35;;;2.15;;
25299;SDS011;13241;51.208;4.432;2023-09-08T11:32:35;4.88;;;2.50;;
25299;SDS011;13241;51.208;4.432;2023-09-08T11:35:06;4.47;;;2.85;;
25299;SDS011;13241;51.208;4.432;2023-09-08T11:37:41;3.75;;;2.70;;
25299;SDS011;13241;51.208;4.432;2023-09-08T11:40:09;3.88;;;2.35;;
25299;SDS011;13241;51.208;4.432;2023-09-08T11:42:39;4.03;;;2.55;;
25299;SDS011;13241;51.208;4.432;2023-09-08T11:45:15;3.42;;;2.40;;
25299;SDS011;13241;51.208;4.432;2023-09-08T11:47:49;3.53;;;2.45;;
25299;SDS011;13241;51.208;4.432;2023-09-08T11:50:19;5.60;;;2.80;;
25299;SDS011;13241;51.208;4.432;2023-09-08T11:52:47;5.20;;;3.17;;
25299;SDS011;13241;51.208;4.432;2023-09-08T11:55:17;4.80;;;2.72;;
25299;SDS011;13241;51.208;4.432;2023-09-08T11:57:54;3.75;;;2.67;;
25299;SDS011;13241;51.208;4.432;2023-09-08T12:00:26;8.15;;;2.80;;
25299;SDS011;13241;51.208;4.432;2023-09-08T12:02:55;3.35;;;2.72;;
25299;SDS011;13241;51.208;4.432;2023-09-08T12:05:35;8.68;;;4.07;;
25299;SDS011;13241;51.208;4.432;2023-09-08T12:08:03;11.27;;;4.35;;
25299;SDS011;13241;51.208;4.432;2023-09-08T12:10:40;4.82;;;2.65;;
25299;SDS011;13241;51.208;4.432;2023-09-08T12:13:08;6.60;;;3.58;;
25299;SDS011;13241;51.208;4.432;2023-09-08T12:15:40;5.05;;;2.78;;
25299;SDS011;13241;51.208;4.432;2023-09-08T12:18:08;7.60;;;2.65;;
25299;SDS011;13241;51.208;4.432;2023-09-08T12:20:37;5.07;;;2.45;;
25299;SDS011;13241;51.208;4.432;2023-09-08T12:23:06;7.07;;;2.58;;
25299;SDS011;13241;51.208;4.432;2023-09-08T12:25:44;3.90;;;2.97;;
25299;SDS011;13241;51.208;4.432;2023-09-08T12:28:12;7.63;;;3.20;;
25299;SDS011;13241;51.208;4.432;2023-09-08T12:30:41;5.43;;;2.70;;
25299;SDS011;13241;51.208;4.432;2023-09-08T12:33:09;5.28;;;3.00;;
25299;SDS011;13241;51.208;4.432;2023-09-08T12:35:37;7.28;;;3.08;;
25299;SDS011;13241;51.208;4.432;2023-09-08T12:38:05;8.15;;;2.65;;
25299;SDS011;13241;51.208;4.432;2023-09-08T12:40:36;6.30;;;2.95;;
25299;SDS011;13241;51.208;4.432;2023-09-08T12:43:04;3.90;;;2.50;;
25299;SDS011;13241;51.208;4.432;2023-09-08T12:45:51;3.78;;;2.47;;
25299;SDS011;13241;51.208;4.432;2023-09-08T12:48:18;9.88;;;2.40;;
25299;SDS011;13241;51.208;4.432;2023-09-08T12:50:46;6.18;;;2.75;;
25299;SDS011;13241;51.208;4.432;2023-09-08T12:53:14;5.43;;;2.40;;
25299;SDS011;13241;51.208;4.432;2023-09-08T12:55:43;7.43;;;3.10;;
25299;SDS011;13241;51.208;4.432;2023-09-08T12:58:10;8.10;;;2.80;;
25299;SDS011;13241;51.208;4.432;2023-09-08T13:00:37;3.90;;;2.63;;
25299;SDS011;13241;51.208;4.432;2023-09-08T13:03:04;3.72;;;2.58;;
25299;SDS011;13241;51.208;4.432;2023-09-08T13:05:31;8.82;;;3.03;;
25299;SDS011;13241;51.208;4.432;2023-09-08T13:07:59;6.97;;;2.65;;
25299;SDS011;13241;51.208;4.432;2023-09-08T13:10:26;6.18;;;2.47;;
25299;SDS011;13241;51.208;4.432;2023-09-08T13:12:53;7.20;;;2.65;;
25299;SDS011;13241;51.208;4.432;2023-09-08T13:15:22;8.90;;;2.42;;
25299;SDS011;13241;51.208;4.432;2023-09-08T13:17:49;4.38;;;2.58;;
25299;SDS011;13241;51.208;4.432;2023-09-08T13:20:17;9.90;;;2.13;;
25299;SDS011;13241;51.208;4.432;2023-09-08T13:22:44;3.65;;;1.98;;
25299;SDS011;13241;51.208;4.432;2023-09-08T13:25:12;4.30;;;2.42;;
25299;SDS011;13241;51.208;4.432;2023-09-08T13:27:42;6.55;;;2.63;;
25299;SDS011;13241;51.208;4.432;2023-09-08T13:30:10;4.72;;;2.47;;
25299;SDS011;13241;51.208;4.432;2023-09-08T13:32:38;6.22;;;2.70;;
25299;SDS011;13241;51.208;4.432;2023-09-08T13:35:06;8.60;;;2.90;;
25299;SDS011;13241;51.208;4.432;2023-09-08T13:37:35;3.65;;;2.55;;
25299;SDS011;13241;51.208;4.432;2023-09-08T13:40:05;13.05;;;1.95;;
25299;SDS011;13241;51.208;4.432;2023-09-08T13:42:33;4.60;;;2.38;;
25299;SDS011;13241;51.208;4.432;2023-09-08T13:45:01;4.50;;;2.42;;
25299;SDS011;13241;51.208;4.432;2023-09-08T13:47:28;6.30;;;2.63;;
25299;SDS011;13241;51.208;4.432;2023-09-08T13:49:55;8.77;;;2.70;;
25299;SDS011;13241;51.208;4.432;2023-09-08T13:52:24;4.57;;;2.40;;
25299;SDS011;13241;51.208;4.432;2023-09-08T13:54:56;7.10;;;2.47;;
25299;SDS011;13241;51.208;4.432;2023-09-08T13:57:26;3.95;;;2.28;;
25299;SDS011;13241;51.208;4.432;2023-09-08T13:59:54;12.05;;;2.42;;
25299;SDS011;13241;51.208;4.432;2023-09-08T14:02:23;4.78;;;2.45;;
25299;SDS011;13241;51.208;4.432;2023-09-08T14:04:53;8.93;;;2.47;;
25299;SDS011;13241;51.208;4.432;2023-09-08T14:07:27;8.73;;;2.50;;
25299;SDS011;13241;51.208;4.432;2023-09-08T14:10:02;3.95;;;2.25;;
25299;SDS011;13241;51.208;4.432;2023-09-08T14:12:36;4.38;;;2.25;;
25299;SDS011;13241;51.208;4.432;2023-09-08T14:15:06;4.38;;;2.45;;
25299;SDS011;13241;51.208;4.432;2023-09-08T14:17:34;8.77;;;2.40;;
25299;SDS011;13241;51.208;4.432;2023-09-08T14:20:01;5.53;;;2.20;;
25299;SDS011;13241;51.208;4.432;2023-09-08T14:22:30;5.35;;;2.70;;
25299;SDS011;13241;51.208;4.432;2023-09-08T14:24:57;11.95;;;3.08;;
25299;SDS011;13241;51.208;4.432;2023-09-08T14:27:24;6.05;;;2.42;;
25299;SDS011;13241;51.208;4.432;2023-09-08T14:29:51;5.32;;;2.72;;
25299;SDS011;13241;51.208;4.432;2023-09-08T14:32:21;3.58;;;2.40;;
25299;SDS011;13241;51.208;4.432;2023-09-08T14:34:48;10.68;;;2.65;;
25299;SDS011;13241;51.208;4.432;2023-09-08T14:37:15;4.03;;;2.45;;
25299;SDS011;13241;51.208;4.432;2023-09-08T14:39:42;4.30;;;2.45;;
25299;SDS011;13241;51.208;4.432;2023-09-08T14:42:09;6.63;;;2.83;;
25299;SDS011;13241;51.208;4.432;2023-09-08T14:44:36;4.10;;;2.50;;
25299;SDS011;13241;51.208;4.432;2023-09-08T14:47:03;6.38;;;2.58;;
25299;SDS011;13241;51.208;4.432;2023-09-08T14:49:30;3.22;;;2.80;;
25299;SDS011;13241;51.208;4.432;2023-09-08T14:51:57;6.22;;;3.03;;
25299;SDS011;13241;51.208;4.432;2023-09-08T14:54:24;5.43;;;3.78;;
25299;SDS011;13241;51.208;4.432;2023-09-08T14:56:52;6.90;;;2.65;;
25299;SDS011;13241;51.208;4.432;2023-09-08T14:59:20;5.45;;;2.90;;